createdAt,value
2018-03-16T00:00:40.840Z,97652
2018-03-16T00:02:44.768Z,97643
2018-03-16T00:04:48.729Z,97657
2018-03-16T00:06:51.918Z,97654
2018-03-16T00:08:55.862Z,97656
2018-03-16T00:10:59.008Z,97663
2018-03-16T00:13:02.153Z,97661
2018-03-16T00:15:06.088Z,97669
2018-03-16T00:17:09.260Z,97666
2018-03-16T00:19:12.416Z,97662
2018-03-16T00:21:15.570Z,97665
2018-03-16T00:23:19.504Z,97669
2018-03-16T00:25:22.657Z,97667
2018-03-16T00:27:25.804Z,97660
2018-03-16T00:29:28.969Z,97657
2018-03-16T00:31:32.124Z,97668
2018-03-16T00:33:35.265Z,97674
2018-03-16T00:35:39.414Z,97672
2018-03-16T00:37:42.579Z,97677
2018-03-16T00:39:45.737Z,97668
2018-03-16T00:41:48.929Z,97670
2018-03-16T00:43:52.368Z,97674
2018-03-16T00:45:55.516Z,97679
2018-03-16T00:47:58.688Z,97675
2018-03-16T00:50:02.071Z,97674
2018-03-16T00:52:05.217Z,97677
2018-03-16T00:54:08.364Z,97680
2018-03-16T00:56:13.417Z,97674
2018-03-16T00:58:17.328Z,97681
2018-03-16T01:00:21.243Z,97681
2018-03-16T01:02:24.403Z,97673
2018-03-16T01:04:27.548Z,97665
2018-03-16T01:06:30.692Z,97659
2018-03-16T01:08:34.637Z,97669
2018-03-16T01:10:37.827Z,97668
2018-03-16T01:12:41.749Z,97668
2018-03-16T01:14:45.661Z,97671
2018-03-16T01:16:48.855Z,97662
2018-03-16T01:18:52.001Z,97662
2018-03-16T01:20:55.911Z,97655
2018-03-16T01:22:59.098Z,97652
2018-03-16T01:25:02.243Z,97651
2018-03-16T01:27:06.165Z,97648
2018-03-16T01:29:10.508Z,97656
2018-03-16T01:31:15.537Z,97646
2018-03-16T01:33:19.449Z,97641
2018-03-16T01:35:24.332Z,97652
2018-03-16T01:37:27.478Z,97644
2018-03-16T01:39:30.626Z,97645
2018-03-16T01:41:35.678Z,97655
2018-03-16T01:43:39.616Z,97664
2018-03-16T01:45:43.557Z,97657
2018-03-16T01:47:46.741Z,97663
2018-03-16T01:49:50.672Z,97657
2018-03-16T01:51:55.731Z,97662
2018-03-16T01:53:58.889Z,97658
2018-03-16T01:56:02.052Z,97665
2018-03-16T01:58:05.228Z,97670
2018-03-16T02:00:08.373Z,97673
2018-03-16T02:02:11.516Z,97663
2018-03-16T02:04:14.682Z,97666
2018-03-16T02:06:17.852Z,97671
2018-03-16T02:08:21.003Z,97668
2018-03-16T02:10:24.146Z,97672
2018-03-16T02:12:27.332Z,97674
2018-03-16T02:14:30.476Z,97675
2018-03-16T02:16:33.651Z,97676
2018-03-16T02:18:37.180Z,97675
2018-03-16T02:20:40.329Z,97666
2018-03-16T02:22:45.583Z,97674
2018-03-16T02:24:50.557Z,97683
2018-03-16T02:26:55.513Z,97681
2018-03-16T02:29:00.087Z,97672
2018-03-16T02:31:04.982Z,97680
2018-03-16T02:33:10.332Z,97672
2018-03-16T02:35:16.127Z,97684
2018-03-16T02:37:20.788Z,97688
2018-03-16T02:39:24.345Z,97668
2018-03-16T02:41:27.489Z,97685
2018-03-16T02:43:30.660Z,97681
2018-03-16T02:45:33.848Z,97686
2018-03-16T02:47:37.032Z,97686
2018-03-16T02:49:40.206Z,97678
2018-03-16T02:51:44.133Z,97689
2018-03-16T02:53:51.138Z,97686
2018-03-16T02:55:54.323Z,97688
2018-03-16T02:58:00.521Z,97672
2018-03-16T03:00:07.900Z,97682
2018-03-16T03:02:12.981Z,97679
2018-03-16T03:04:16.332Z,97692
2018-03-16T03:06:20.298Z,97686
2018-03-16T03:08:24.204Z,97675
2018-03-16T03:10:27.348Z,97690
2018-03-16T03:12:30.519Z,97675
2018-03-16T03:14:33.665Z,97685
2018-03-16T03:16:36.837Z,97687
2018-03-16T03:18:40.268Z,97687
2018-03-16T03:20:44.180Z,97699
2018-03-16T03:22:47.356Z,97695
2018-03-16T03:24:50.500Z,97705
2018-03-16T03:26:54.438Z,97691
2018-03-16T03:28:58.372Z,97706
2018-03-16T03:31:02.280Z,97699
2018-03-16T03:33:06.227Z,97694
2018-03-16T03:35:09.370Z,97697
2018-03-16T03:37:12.518Z,97711
2018-03-16T03:39:16.479Z,97702
2018-03-16T03:41:19.625Z,97701
2018-03-16T03:43:22.780Z,97707
2018-03-16T03:45:26.720Z,97704
2018-03-16T03:47:29.861Z,97703
2018-03-16T03:49:33.010Z,97709
2018-03-16T03:51:36.952Z,97709
2018-03-16T03:53:40.107Z,97706
2018-03-16T03:55:43.246Z,97709
2018-03-16T03:57:47.196Z,97701
2018-03-16T03:59:50.339Z,97705
2018-03-16T04:01:53.480Z,97712
2018-03-16T04:03:57.434Z,97704
2018-03-16T04:06:00.573Z,97702
2018-03-16T04:08:03.764Z,97701
2018-03-16T04:10:06.925Z,97707
2018-03-16T04:12:10.076Z,97710
2018-03-16T04:14:13.269Z,97710
2018-03-16T04:16:16.438Z,97717
2018-03-16T04:18:19.610Z,97726
2018-03-16T04:20:23.612Z,97735
2018-03-16T04:22:26.792Z,97731
2018-03-16T04:24:29.928Z,97738
2018-03-16T04:26:33.101Z,97727
2018-03-16T04:28:37.753Z,97732
2018-03-16T04:30:40.925Z,97727
2018-03-16T04:32:44.205Z,97729
2018-03-16T04:34:47.356Z,97733
2018-03-16T04:36:50.740Z,97743
2018-03-16T04:38:53.920Z,97739
2018-03-16T04:40:57.832Z,97741
2018-03-16T04:43:01.768Z,97733
2018-03-16T04:45:05.676Z,97740
2018-03-16T04:47:08.845Z,97743
2018-03-16T04:49:11.994Z,97734
2018-03-16T04:51:15.913Z,97735
2018-03-16T04:53:19.085Z,97745
2018-03-16T04:55:22.229Z,97738
2018-03-16T04:57:25.602Z,97741
2018-03-16T04:59:28.785Z,97737
2018-03-16T05:01:31.970Z,97742
2018-03-16T05:03:35.904Z,97742
2018-03-16T05:05:39.825Z,97742
2018-03-16T05:07:43.762Z,97753
2018-03-16T05:09:46.943Z,97746
2018-03-16T05:11:50.130Z,97756
2018-03-16T05:13:53.285Z,97758
2018-03-16T05:15:56.434Z,97760
2018-03-16T05:17:59.622Z,97762
2018-03-16T05:20:02.789Z,97761
2018-03-16T05:22:06.734Z,97773
2018-03-16T05:24:09.881Z,97762
2018-03-16T05:26:13.352Z,97770
2018-03-16T05:28:17.489Z,97766
2018-03-16T05:30:20.633Z,97779
2018-03-16T05:32:23.905Z,97772
2018-03-16T05:34:27.371Z,97776
2018-03-16T05:36:30.528Z,97785
2018-03-16T05:38:33.723Z,97787
2018-03-16T05:40:37.666Z,97786
2018-03-16T05:42:40.818Z,97790
2018-03-16T05:44:43.993Z,97786
2018-03-16T05:46:48.004Z,97782
2018-03-16T05:48:52.863Z,97785
2018-03-16T05:50:56.010Z,97783
2018-03-16T05:52:59.760Z,97786
2018-03-16T05:55:03.690Z,97782
2018-03-16T05:57:08.712Z,97792
2018-03-16T05:59:13.398Z,97790
2018-03-16T06:01:18.880Z,97786
2018-03-16T06:03:22.168Z,97793
2018-03-16T06:05:25.342Z,97789
2018-03-16T06:07:29.032Z,97790
2018-03-16T06:09:32.210Z,97794
2018-03-16T06:11:35.400Z,97787
2018-03-16T06:13:39.613Z,97799
2018-03-16T06:15:42.782Z,97793
2018-03-16T06:17:45.956Z,97796
2018-03-16T06:19:51.069Z,97797
2018-03-16T06:21:54.360Z,97800
2018-03-16T06:23:57.513Z,97807
2018-03-16T06:26:00.750Z,97797
2018-03-16T06:28:05.113Z,97801
2018-03-16T06:30:08.269Z,97800
2018-03-16T06:32:12.201Z,97802
2018-03-16T06:34:17.196Z,97802
2018-03-16T06:36:21.326Z,97803
2018-03-16T06:38:24.809Z,97809
2018-03-16T06:40:29.282Z,97813
2018-03-16T06:42:34.742Z,97808
2018-03-16T06:44:38.523Z,97809
2018-03-16T06:46:41.938Z,97812
2018-03-16T06:48:45.961Z,97806
2018-03-16T06:50:50.532Z,97819
2018-03-16T06:52:54.622Z,97818
2018-03-16T06:54:58.598Z,97817
2018-03-16T06:57:01.740Z,97827
2018-03-16T06:59:05.659Z,97829
2018-03-16T07:01:09.003Z,97825
2018-03-16T07:03:13.271Z,97835
2018-03-16T07:05:16.448Z,97844
2018-03-16T07:07:19.723Z,97844
2018-03-16T07:09:23.662Z,97841
2018-03-16T07:11:28.686Z,97838
2018-03-16T07:13:33.844Z,97850
2018-03-16T07:15:37.023Z,97836
2018-03-16T07:17:40.184Z,97847
2018-03-16T07:19:44.146Z,97853
2018-03-16T07:21:47.340Z,97858
2018-03-16T07:23:51.018Z,97847
2018-03-16T07:25:56.421Z,97852
2018-03-16T07:27:59.597Z,97851
2018-03-16T07:30:02.769Z,97858
2018-03-16T07:32:05.972Z,97860
2018-03-16T07:34:09.452Z,97860
2018-03-16T07:36:12.824Z,97867
2018-03-16T07:38:16.461Z,97875
2018-03-16T07:40:19.762Z,97873
2018-03-16T07:42:22.908Z,97881
2018-03-16T07:44:26.089Z,97880
2018-03-16T07:46:30.038Z,97888
2018-03-16T07:48:33.183Z,97884
2018-03-16T07:50:36.340Z,97889
2018-03-16T07:52:40.289Z,97889
2018-03-16T07:54:43.688Z,97887
2018-03-16T07:56:46.890Z,97896
2018-03-16T07:58:51.184Z,97903
2018-03-16T08:00:54.621Z,97900
2018-03-16T08:02:59.527Z,97903
2018-03-16T08:05:03.862Z,97903
2018-03-16T08:07:07.127Z,97903
2018-03-16T08:09:11.054Z,97916
2018-03-16T08:11:15.004Z,97921
2018-03-16T08:13:18.184Z,97910
2018-03-16T08:15:22.436Z,97922
2018-03-16T08:17:25.594Z,97930
2018-03-16T08:19:29.512Z,97927
2018-03-16T08:21:32.696Z,97931
2018-03-16T08:23:36.971Z,97922
2018-03-16T08:25:40.132Z,97922
2018-03-16T08:27:44.406Z,97924
2018-03-16T08:29:47.884Z,97926
2018-03-16T08:31:51.644Z,97926
2018-03-16T08:33:58.003Z,97928
2018-03-16T08:36:01.272Z,97935
2018-03-16T08:38:04.455Z,97932
2018-03-16T08:40:07.643Z,97936
2018-03-16T08:42:12.121Z,97937
2018-03-16T08:44:17.453Z,97936
2018-03-16T08:46:20.639Z,97929
2018-03-16T08:48:23.869Z,97944
2018-03-16T08:50:27.048Z,97936
2018-03-16T08:52:30.208Z,97934
2018-03-16T08:54:34.201Z,97945
2018-03-16T08:56:38.599Z,97953
2018-03-16T08:58:42.573Z,97940
2018-03-16T09:00:45.756Z,97941
2018-03-16T09:02:48.916Z,97944
2018-03-16T09:04:52.077Z,97943
2018-03-16T09:06:56.025Z,97938
2018-03-16T09:08:59.360Z,97947
2018-03-16T09:11:03.564Z,97946
2018-03-16T09:13:06.719Z,97935
2018-03-16T09:15:10.154Z,97945
2018-03-16T09:17:13.325Z,97942
2018-03-16T09:19:17.292Z,97939
2018-03-16T09:21:20.514Z,97944
2018-03-16T09:23:23.706Z,97933
2018-03-16T09:25:27.560Z,97944
2018-03-16T09:27:31.151Z,97948
2018-03-16T09:29:34.341Z,97949
2018-03-16T09:31:37.658Z,97958
2018-03-16T09:33:40.936Z,97953
2018-03-16T09:35:44.855Z,97953
2018-03-16T09:37:48.813Z,97955
2018-03-16T09:39:52.000Z,97953
2018-03-16T09:41:55.916Z,97959
2018-03-16T09:44:00.994Z,97949
2018-03-16T09:46:04.153Z,97955
2018-03-16T09:48:07.312Z,97950
2018-03-16T09:50:10.517Z,97954
2018-03-16T09:52:13.676Z,97952
2018-03-16T09:54:16.925Z,97954
2018-03-16T09:56:20.139Z,97969
2018-03-16T09:58:23.289Z,97961
2018-03-16T10:00:26.453Z,97965
2018-03-16T10:02:29.633Z,97965
2018-03-16T10:04:33.553Z,97962
2018-03-16T10:06:36.733Z,97961
2018-03-16T10:08:39.891Z,97961
2018-03-16T10:10:43.817Z,97959
2018-03-16T10:12:47.015Z,97964
2018-03-16T10:14:50.968Z,97958
2018-03-16T10:16:54.891Z,97964
2018-03-16T10:18:58.044Z,97967
2018-03-16T10:21:01.220Z,97967
2018-03-16T10:23:04.373Z,97976
2018-03-16T10:25:07.523Z,97972
2018-03-16T10:27:10.710Z,97966
2018-03-16T10:29:14.702Z,97976
2018-03-16T10:31:17.897Z,97976
2018-03-16T10:33:21.077Z,97976
2018-03-16T10:35:24.227Z,97986
2018-03-16T10:37:27.918Z,97986
2018-03-16T10:39:31.444Z,97986
2018-03-16T10:41:35.224Z,97989
2018-03-16T10:43:39.889Z,97998
2018-03-16T10:45:46.480Z,97997
2018-03-16T10:47:50.741Z,97995
2018-03-16T10:49:53.986Z,97999
2018-03-16T10:51:57.180Z,98009
2018-03-16T10:54:00.348Z,98004
2018-03-16T10:56:04.649Z,98021
2018-03-16T10:58:07.835Z,98017
2018-03-16T11:00:11.765Z,98024
2018-03-16T11:02:20.427Z,98025
2018-03-16T11:04:29.309Z,98030
2018-03-16T11:06:34.367Z,98029
2018-03-16T11:08:37.563Z,98037
2018-03-16T11:10:40.727Z,98039
2018-03-16T11:12:43.874Z,98032
2018-03-16T11:14:47.077Z,98042
2018-03-16T11:16:50.265Z,98044
2018-03-16T11:18:53.444Z,98047
2018-03-16T11:20:57.370Z,98046
2018-03-16T11:23:00.551Z,98044
2018-03-16T11:25:03.728Z,98037
2018-03-16T11:27:07.051Z,98041
2018-03-16T11:29:10.208Z,98044
2018-03-16T11:31:14.177Z,98041
2018-03-16T11:33:17.357Z,98038
2018-03-16T11:35:20.541Z,98043
2018-03-16T11:37:24.448Z,98043
2018-03-16T11:39:27.618Z,98046
2018-03-16T11:41:30.796Z,98044
2018-03-16T11:43:33.968Z,98044
2018-03-16T11:45:37.156Z,98043
2018-03-16T11:47:40.312Z,98048
2018-03-16T11:49:44.269Z,98050
2018-03-16T11:51:47.622Z,98058
2018-03-16T11:53:50.770Z,98056
2018-03-16T11:55:53.909Z,98052
2018-03-16T11:57:57.661Z,98059
2018-03-16T12:00:00.806Z,98062
2018-03-16T12:02:03.948Z,98061
2018-03-16T12:04:09.032Z,98066
2018-03-16T12:06:12.954Z,98069
2018-03-16T12:08:17.639Z,98071
2018-03-16T12:10:20.829Z,98068
2018-03-16T12:12:24.785Z,98072
2018-03-16T12:14:28.806Z,98076
2018-03-16T12:16:31.977Z,98073
2018-03-16T12:18:35.146Z,98070
2018-03-16T12:20:38.321Z,98073
2018-03-16T12:22:41.500Z,98065
2018-03-16T12:24:44.689Z,98081
2018-03-16T12:26:47.857Z,98070
2018-03-16T12:28:51.001Z,98071
2018-03-16T12:30:54.231Z,98067
2018-03-16T12:32:58.145Z,98071
2018-03-16T12:35:01.323Z,98069
2018-03-16T12:37:04.806Z,98078
2018-03-16T12:39:08.446Z,98076
2018-03-16T12:41:11.609Z,98083
2018-03-16T12:43:14.783Z,98071
2018-03-16T12:45:21.006Z,98076
2018-03-16T12:47:35.387Z,98072
2018-03-16T12:49:40.127Z,98073
2018-03-16T12:51:44.999Z,98070
2018-03-16T12:53:50.284Z,98072
2018-03-16T12:55:54.241Z,98073
2018-03-16T12:57:58.799Z,98078
2018-03-16T13:00:02.145Z,98070
2018-03-16T13:02:05.297Z,98071
2018-03-16T13:04:09.206Z,98072
2018-03-16T13:06:12.388Z,98079
2018-03-16T13:08:15.541Z,98078
2018-03-16T13:10:19.461Z,98075
2018-03-16T13:12:23.612Z,98073
2018-03-16T13:14:26.789Z,98080
2018-03-16T13:16:29.942Z,98072
2018-03-16T13:18:33.116Z,98084
2018-03-16T13:20:37.039Z,98080
2018-03-16T13:22:41.075Z,98082
2018-03-16T13:24:44.410Z,98068
2018-03-16T13:26:47.562Z,98085
2018-03-16T13:28:50.753Z,98087
2018-03-16T13:30:53.911Z,98084
2018-03-16T13:32:57.890Z,98091
2018-03-16T13:35:01.032Z,98093
2018-03-16T13:37:04.183Z,98094
2018-03-16T13:39:07.895Z,98098
2018-03-16T13:41:11.094Z,98109
2018-03-16T13:43:15.120Z,98096
2018-03-16T13:45:18.308Z,98101
2018-03-16T13:47:22.352Z,98101
2018-03-16T13:49:25.737Z,98092
2018-03-16T13:51:29.668Z,98095
2018-03-16T13:53:33.869Z,98088
2018-03-16T13:55:37.019Z,98095
2018-03-16T13:57:40.993Z,98100
2018-03-16T13:59:44.169Z,98101
2018-03-16T14:01:47.386Z,98101
2018-03-16T14:03:50.531Z,98102
2018-03-16T14:05:54.421Z,98103
2018-03-16T14:07:57.597Z,98101
2018-03-16T14:10:01.541Z,98098
2018-03-16T14:12:04.743Z,98109
2018-03-16T14:14:08.653Z,98107
2018-03-16T14:16:12.633Z,98113
2018-03-16T14:18:16.542Z,98112
2018-03-16T14:20:19.889Z,98116
2018-03-16T14:22:23.081Z,98120
2018-03-16T14:24:26.272Z,98108
2018-03-16T14:26:29.481Z,98111
2018-03-16T14:28:32.673Z,98118
2018-03-16T14:30:35.853Z,98124
2018-03-16T14:32:39.037Z,98121
2018-03-16T14:34:42.312Z,98121
2018-03-16T14:36:45.480Z,98121
2018-03-16T14:38:48.822Z,98128
2018-03-16T14:40:51.989Z,98133
2018-03-16T14:42:57.058Z,98134
2018-03-16T14:45:01.315Z,98134
2018-03-16T14:47:05.254Z,98134
2018-03-16T14:49:08.433Z,98134
2018-03-16T14:51:12.374Z,98130
2018-03-16T14:53:16.668Z,98121
2018-03-16T14:55:20.353Z,98126
2018-03-16T14:57:23.521Z,98133
2018-03-16T14:59:27.457Z,98138
2018-03-16T15:01:30.629Z,98133
2018-03-16T15:03:33.796Z,98134
2018-03-16T15:05:37.225Z,98140
2018-03-16T15:07:40.402Z,98137
2018-03-16T15:09:43.544Z,98140
2018-03-16T15:11:46.723Z,98141
2018-03-16T15:13:49.921Z,98152
2018-03-16T15:15:53.856Z,98150
2018-03-16T15:17:57.874Z,98147
2018-03-16T15:20:01.285Z,98149
2018-03-16T15:22:05.176Z,98145
2018-03-16T15:24:08.325Z,98141
2018-03-16T15:26:11.496Z,98140
2018-03-16T15:28:15.407Z,98155
2018-03-16T15:30:18.549Z,98146
2018-03-16T15:32:22.485Z,98158
2018-03-16T15:34:25.628Z,98155
2018-03-16T15:36:30.456Z,98156
2018-03-16T15:38:33.602Z,98150
2018-03-16T15:40:36.741Z,98162
2018-03-16T15:42:41.793Z,98165
2018-03-16T15:44:45.702Z,98164
2018-03-16T15:46:49.616Z,98166
2018-03-16T15:48:52.784Z,98165
2018-03-16T15:50:55.924Z,98162
2018-03-16T15:53:00.561Z,98168
2018-03-16T15:55:03.727Z,98168
2018-03-16T15:57:06.878Z,98165
2018-03-16T15:59:10.047Z,98178
2018-03-16T16:01:13.217Z,98172
2018-03-16T16:03:16.384Z,98166
2018-03-16T16:05:19.533Z,98169
2018-03-16T16:07:22.997Z,98181
2018-03-16T16:09:26.140Z,98181
2018-03-16T16:11:29.287Z,98181
2018-03-16T16:13:32.758Z,98180
2018-03-16T16:15:35.898Z,98176
2018-03-16T16:17:39.872Z,98195
2018-03-16T16:19:43.038Z,98188
2018-03-16T16:21:46.194Z,98191
2018-03-16T16:23:49.365Z,98193
2018-03-16T16:25:52.505Z,98207
2018-03-16T16:27:56.260Z,98196
2018-03-16T16:30:00.198Z,98196
2018-03-16T16:32:04.227Z,98203
2018-03-16T16:34:09.253Z,98207
2018-03-16T16:36:15.904Z,98221
2018-03-16T16:38:19.077Z,98209
2018-03-16T16:40:23.020Z,98221
2018-03-16T16:42:26.184Z,98216
2018-03-16T16:44:29.352Z,98215
2018-03-16T16:46:32.510Z,98223
2018-03-16T16:48:35.684Z,98224
2018-03-16T16:50:38.832Z,98226
2018-03-16T16:52:42.764Z,98228
2018-03-16T16:54:46.711Z,98220
2018-03-16T16:56:49.868Z,98230
2018-03-16T16:58:55.164Z,98236
2018-03-16T17:00:58.329Z,98239
2018-03-16T17:03:01.502Z,98246
2018-03-16T17:05:04.632Z,98249
2018-03-16T17:07:07.769Z,98245
2018-03-16T17:09:10.929Z,98252
2018-03-16T17:11:14.072Z,98249
2018-03-16T17:13:18.030Z,98252
2018-03-16T17:15:21.193Z,98252
2018-03-16T17:17:24.362Z,98255
2018-03-16T17:19:27.533Z,98260
2018-03-16T17:21:31.467Z,98270
2018-03-16T17:23:35.525Z,98268
2018-03-16T17:25:38.984Z,98278
2018-03-16T17:27:42.145Z,98273
2018-03-16T17:29:45.462Z,98279
2018-03-16T17:31:48.610Z,98281
2018-03-16T17:33:51.748Z,98280
2018-03-16T17:35:55.705Z,98270
2018-03-16T17:37:58.845Z,98284
2018-03-16T17:40:01.989Z,98288
2018-03-16T17:42:05.929Z,98281
2018-03-16T17:44:09.112Z,98273
2018-03-16T17:46:12.285Z,98287
2018-03-16T17:48:15.720Z,98291
2018-03-16T17:50:18.856Z,98279
2018-03-16T17:52:22.760Z,98269
2018-03-16T17:54:25.924Z,98287
2018-03-16T17:56:29.061Z,98290
2018-03-16T17:58:32.238Z,98291
2018-03-16T18:00:35.427Z,98292
2018-03-16T18:02:39.686Z,98292
2018-03-16T18:04:43.643Z,98294
2018-03-16T18:06:47.011Z,98293
2018-03-16T18:08:50.406Z,98301
2018-03-16T18:10:53.553Z,98292
2018-03-16T18:12:56.709Z,98307
2018-03-16T18:15:00.649Z,98307
2018-03-16T18:17:03.800Z,98307
2018-03-16T18:19:06.968Z,98310
2018-03-16T18:21:10.145Z,98310
2018-03-16T18:23:13.282Z,98306
2018-03-16T18:25:16.429Z,98304
2018-03-16T18:27:19.618Z,98304
2018-03-16T18:29:22.756Z,98312
2018-03-16T18:31:25.897Z,98313
2018-03-16T18:33:29.877Z,98308
2018-03-16T18:35:33.025Z,98317
2018-03-16T18:37:36.944Z,98319
2018-03-16T18:39:41.205Z,98315
2018-03-16T18:41:44.357Z,98324
2018-03-16T18:43:47.710Z,98324
2018-03-16T18:45:52.797Z,98322
2018-03-16T18:47:55.970Z,98325
2018-03-16T18:49:59.904Z,98333
2018-03-16T18:52:03.084Z,98328
2018-03-16T18:54:06.257Z,98333
2018-03-16T18:56:09.432Z,98337
2018-03-16T18:58:13.393Z,98327
2018-03-16T19:00:16.674Z,98326
2018-03-16T19:02:19.817Z,98320
2018-03-16T19:04:23.100Z,98314
2018-03-16T19:06:26.240Z,98327
2018-03-16T19:08:29.452Z,98322
2018-03-16T19:10:33.549Z,98319
2018-03-16T19:12:36.698Z,98321
2018-03-16T19:14:39.877Z,98328
2018-03-16T19:16:43.027Z,98332
2018-03-16T19:18:46.937Z,98327
2018-03-16T19:20:50.937Z,98328
2018-03-16T19:22:54.138Z,98331
2018-03-16T19:24:57.329Z,98322
2018-03-16T19:27:00.477Z,98326
2018-03-16T19:29:03.662Z,98323
2018-03-16T19:31:06.969Z,98331
2018-03-16T19:33:10.117Z,98334
2018-03-16T19:35:14.218Z,98338
2018-03-16T19:37:17.365Z,98338
2018-03-16T19:39:20.613Z,98351
2018-03-16T19:41:23.784Z,98345
2018-03-16T19:43:27.694Z,98340
2018-03-16T19:45:30.848Z,98343
2018-03-16T19:47:36.106Z,98340
2018-03-16T19:49:39.432Z,98346
2018-03-16T19:51:42.615Z,98340
2018-03-16T19:53:45.767Z,98338
2018-03-16T19:55:48.953Z,98343
2018-03-16T19:57:52.434Z,98350
2018-03-16T19:59:56.345Z,98356
2018-03-16T20:01:59.521Z,98345
2018-03-16T20:04:02.676Z,98351
2018-03-16T20:06:06.736Z,98356
2018-03-16T20:08:09.949Z,98344
2018-03-16T20:10:13.286Z,98362
2018-03-16T20:12:16.649Z,98359
2018-03-16T20:14:19.822Z,98358
2018-03-16T20:16:22.978Z,98361
2018-03-16T20:18:26.127Z,98361
2018-03-16T20:20:29.305Z,98361
2018-03-16T20:22:32.534Z,98359
2018-03-16T20:24:35.672Z,98363
2018-03-16T20:26:38.866Z,98371
2018-03-16T20:28:42.037Z,98366
2018-03-16T20:30:45.514Z,98374
2018-03-16T20:32:49.433Z,98378
2018-03-16T20:34:53.336Z,98372
2018-03-16T20:36:56.505Z,98378
2018-03-16T20:38:59.897Z,98379
2018-03-16T20:41:03.045Z,98383
2018-03-16T20:43:06.986Z,98382
2018-03-16T20:45:10.256Z,98385
2018-03-16T20:47:13.397Z,98382
2018-03-16T20:49:17.585Z,98385
2018-03-16T20:51:20.721Z,98392
2018-03-16T20:53:24.002Z,98396
2018-03-16T20:55:27.164Z,98390
2018-03-16T20:57:31.209Z,98397
2018-03-16T20:59:35.153Z,98390
2018-03-16T21:01:38.371Z,98399
2018-03-16T21:03:41.479Z,98402
2018-03-16T21:05:44.700Z,98408
2018-03-16T21:07:48.083Z,98404
2018-03-16T21:09:52.116Z,98403
2018-03-16T21:11:55.345Z,98402
2018-03-16T21:13:58.566Z,98419
2018-03-16T21:16:01.837Z,98404
2018-03-16T21:18:05.749Z,98411
2018-03-16T21:20:08.931Z,98397
2018-03-16T21:22:12.084Z,98412
2018-03-16T21:24:17.106Z,98421
2018-03-16T21:26:20.306Z,98414
2018-03-16T21:28:26.742Z,98417
2018-03-16T21:30:30.033Z,98417
2018-03-16T21:32:34.094Z,98430
2018-03-16T21:34:37.520Z,98427
2018-03-16T21:36:40.665Z,98425
2018-03-16T21:38:43.937Z,98427
2018-03-16T21:40:47.253Z,98432
2018-03-16T21:42:50.836Z,98423
2018-03-16T21:44:54.025Z,98433
2018-03-16T21:46:57.909Z,98436
2018-03-16T21:49:01.069Z,98431
2018-03-16T21:51:04.397Z,98436
2018-03-16T21:53:07.680Z,98427
2018-03-16T21:55:11.593Z,98431
2018-03-16T21:57:15.529Z,98423
2018-03-16T21:59:19.457Z,98425
2018-03-16T22:01:23.375Z,98423
2018-03-16T22:03:27.288Z,98432
2018-03-16T22:05:30.460Z,98417
2018-03-16T22:07:33.598Z,98430
2018-03-16T22:09:36.817Z,98431
2018-03-16T22:11:40.400Z,98426
2018-03-16T22:13:43.588Z,98426
2018-03-16T22:15:46.724Z,98426
2018-03-16T22:17:53.433Z,98426
2018-03-16T22:19:57.350Z,98432
2018-03-16T22:22:01.277Z,98426
2018-03-16T22:24:04.452Z,98429
2018-03-16T22:26:07.719Z,98426
2018-03-16T22:28:11.788Z,98416
2018-03-16T22:30:15.047Z,98415
2018-03-16T22:32:21.082Z,98409
2018-03-16T22:34:25.506Z,98410
2018-03-16T22:36:28.644Z,98400
2018-03-16T22:38:31.813Z,98416
2018-03-16T22:40:34.953Z,98414
2018-03-16T22:42:39.245Z,98420
2018-03-16T22:44:42.393Z,98419
2018-03-16T22:46:45.564Z,98420
2018-03-16T22:48:48.736Z,98416
2018-03-16T22:50:51.909Z,98419
2018-03-16T22:52:55.071Z,98416
2018-03-16T22:55:00.118Z,98423
2018-03-16T22:57:04.031Z,98430
2018-03-16T22:59:07.946Z,98417
2018-03-16T23:01:11.883Z,98419
2018-03-16T23:03:15.846Z,98407
2018-03-16T23:05:20.139Z,98419
2018-03-16T23:07:24.076Z,98413
2018-03-16T23:09:27.984Z,98409
2018-03-16T23:11:31.128Z,98407
2018-03-16T23:13:34.292Z,98408
2018-03-16T23:15:37.433Z,98411
2018-03-16T23:17:40.629Z,98412
2018-03-16T23:19:44.546Z,98418
2018-03-16T23:21:48.457Z,98414
2018-03-16T23:23:51.625Z,98417
2018-03-16T23:25:54.766Z,98419
2018-03-16T23:27:57.948Z,98402
2018-03-16T23:30:01.177Z,98416
2018-03-16T23:32:04.326Z,98414
2018-03-16T23:34:08.010Z,98404
2018-03-16T23:36:11.181Z,98407
2018-03-16T23:38:14.514Z,98401
2018-03-16T23:40:17.655Z,98393
2018-03-16T23:42:21.019Z,98402
2018-03-16T23:44:24.169Z,98388
2018-03-16T23:46:27.349Z,98405
2018-03-16T23:48:30.524Z,98398
2018-03-16T23:50:33.657Z,98401
2018-03-16T23:52:36.837Z,98396
2018-03-16T23:54:39.988Z,98399
2018-03-16T23:56:43.152Z,98391
2018-03-16T23:58:46.301Z,98405
